JST594 YMML-YSSY
Flight info
| Callsign | JST594 |
|---|---|
| Flight time | 1h 6m |
| Altitude | 32000 |
| Route | DCT ML H129 DOSEL Y59 RIVET RIVET4 |
| Aircraft | A320/M-VGDW/C |
Departure
| Time | 2026-04-30 10:46 |
|---|---|
| Airport | Melbourne Airport (YMML) |
Arrival
| Time | 2026-04-30 11:52 |
|---|---|
| Airport | Sydney Kingsford Smith International Airport (YSSY) |
| Time | Latitude | Longitude | Altitude | Speed | Heading |
|---|---|---|---|---|---|
| 2026-04-30 10:29 | -37.67536 | 144.84744 | 351 ft | 0 kts | 172° |
| 2026-04-30 10:37 | -37.67530 | 144.84743 | 360 ft | 3 kts | 173° |
| 2026-04-30 10:37 | -37.67511 | 144.84741 | 358 ft | 3 kts | 178° |
| 2026-04-30 10:37 | -37.67492 | 144.84741 | 356 ft | 3 kts | 184° |
| 2026-04-30 10:38 | -37.67473 | 144.84744 | 359 ft | 3 kts | 189° |
| 2026-04-30 10:38 | -37.67455 | 144.84750 | 356 ft | 3 kts | 211° |
| 2026-04-30 10:38 | -37.67440 | 144.84765 | 354 ft | 3 kts | 233° |
| 2026-04-30 10:38 | -37.67432 | 144.84780 | 358 ft | 0 kts | 245° |
| 2026-04-30 10:41 | -37.67436 | 144.84767 | 360 ft | 4 kts | 252° |
| 2026-04-30 10:41 | -37.67450 | 144.84688 | 355 ft | 13 kts | 258° |
| 2026-04-30 10:41 | -37.67466 | 144.84567 | 356 ft | 11 kts | 269° |
| 2026-04-30 10:42 | -37.67466 | 144.84462 | 358 ft | 13 kts | 263° |
| 2026-04-30 10:42 | -37.67487 | 144.84346 | 363 ft | 14 kts | 232° |
| 2026-04-30 10:42 | -37.67586 | 144.84342 | 362 ft | 17 kts | 167° |
| 2026-04-30 10:42 | -37.67720 | 144.84367 | 358 ft | 22 kts | 171° |
| 2026-04-30 10:43 | -37.67873 | 144.84397 | 353 ft | 23 kts | 169° |
| 2026-04-30 10:43 | -37.67993 | 144.84419 | 346 ft | 20 kts | 172° |
| 2026-04-30 10:43 | -37.68143 | 144.84446 | 344 ft | 22 kts | 170° |
| 2026-04-30 10:43 | -37.68298 | 144.84472 | 334 ft | 23 kts | 176° |
| 2026-04-30 10:44 | -37.68435 | 144.84394 | 331 ft | 20 kts | 216° |
| 2026-04-30 10:44 | -37.68538 | 144.84283 | 329 ft | 19 kts | 239° |
| 2026-04-30 10:44 | -37.68549 | 144.84252 | 329 ft | 0 kts | 254° |
| 2026-04-30 10:44 | -37.68549 | 144.84251 | 329 ft | 0 kts | 254° |
| 2026-04-30 10:45 | -37.68553 | 144.84235 | 330 ft | 4 kts | 255° |
| 2026-04-30 10:45 | -37.68559 | 144.84188 | 329 ft | 7 kts | 266° |
| 2026-04-30 10:45 | -37.68549 | 144.84120 | 333 ft | 11 kts | 298° |
| 2026-04-30 10:45 | -37.68465 | 144.84077 | 334 ft | 22 kts | 351° |
| 2026-04-30 10:46 | -37.68032 | 144.83997 | 354 ft | 104 kts | 351° |
| 2026-04-30 10:46 | -37.67084 | 144.83827 | 403 ft | 164 kts | 353° |
| 2026-04-30 10:46 | -37.65895 | 144.83600 | 944 ft | 185 kts | 353° |
| 2026-04-30 10:46 | -37.64553 | 144.83347 | 1638 ft | 206 kts | 352° |
| 2026-04-30 10:47 | -37.63123 | 144.83068 | 2683 ft | 209 kts | 352° |
| 2026-04-30 10:47 | -37.62143 | 144.82875 | 3282 ft | 222 kts | 352° |
| 2026-04-30 10:47 | -37.60550 | 144.82570 | 4097 ft | 241 kts | 353° |
| 2026-04-30 10:47 | -37.58752 | 144.82637 | 4240 ft | 267 kts | 11° |
| 2026-04-30 10:48 | -37.57060 | 144.83480 | 4353 ft | 260 kts | 24° |
| 2026-04-30 10:48 | -37.55426 | 144.84515 | 4474 ft | 263 kts | 23° |
| 2026-04-30 10:48 | -37.53782 | 144.85534 | 4579 ft | 263 kts | 24° |
| 2026-04-30 10:48 | -37.52172 | 144.86521 | 4776 ft | 261 kts | 23° |
| 2026-04-30 10:49 | -37.50577 | 144.87496 | 5035 ft | 245 kts | 23° |
| 2026-04-30 10:49 | -37.49047 | 144.88425 | 5320 ft | 248 kts | 22° |
| 2026-04-30 10:49 | -37.47482 | 144.89370 | 5595 ft | 249 kts | 22° |
| 2026-04-30 10:49 | -37.45872 | 144.90339 | 5888 ft | 268 kts | 22° |
| 2026-04-30 10:50 | -37.44182 | 144.91539 | 6428 ft | 290 kts | 33° |
| 2026-04-30 10:50 | -37.42669 | 144.93366 | 6985 ft | 314 kts | 47° |
| 2026-04-30 10:50 | -37.41362 | 144.95676 | 7523 ft | 330 kts | 51° |
| 2026-04-30 10:50 | -37.40016 | 144.98099 | 8072 ft | 345 kts | 51° |
| 2026-04-30 10:51 | -37.38612 | 145.00612 | 8624 ft | 357 kts | 51° |
| 2026-04-30 10:51 | -37.37178 | 145.03165 | 9164 ft | 369 kts | 51° |
| 2026-04-30 10:51 | -37.35667 | 145.05845 | 9751 ft | 377 kts | 51° |
| 2026-04-30 10:51 | -37.34132 | 145.08560 | 10310 ft | 383 kts | 51° |
| 2026-04-30 10:52 | -37.32589 | 145.11286 | 10829 ft | 382 kts | 51° |
| 2026-04-30 10:52 | -37.31043 | 145.14015 | 11359 ft | 382 kts | 51° |
| 2026-04-30 10:52 | -37.29503 | 145.16730 | 11906 ft | 380 kts | 51° |
| 2026-04-30 10:52 | -37.27992 | 145.19391 | 12445 ft | 380 kts | 51° |
| 2026-04-30 10:53 | -37.26440 | 145.22122 | 12997 ft | 378 kts | 51° |
| 2026-04-30 10:53 | -37.24929 | 145.24779 | 13568 ft | 377 kts | 51° |
| 2026-04-30 10:53 | -37.23402 | 145.27459 | 14146 ft | 377 kts | 51° |
| 2026-04-30 10:53 | -37.21879 | 145.30133 | 14662 ft | 376 kts | 51° |
| 2026-04-30 10:54 | -37.20357 | 145.32801 | 15156 ft | 375 kts | 51° |
| 2026-04-30 10:54 | -37.18841 | 145.35459 | 15589 ft | 374 kts | 51° |
| 2026-04-30 10:54 | -37.17329 | 145.38108 | 16029 ft | 373 kts | 51° |
| 2026-04-30 10:54 | -37.15819 | 145.40750 | 16469 ft | 372 kts | 51° |
| 2026-04-30 10:55 | -37.14311 | 145.43382 | 16918 ft | 371 kts | 51° |
| 2026-04-30 10:55 | -37.12804 | 145.46007 | 17385 ft | 371 kts | 51° |
| 2026-04-30 10:55 | -37.11319 | 145.48594 | 17842 ft | 370 kts | 51° |
| 2026-04-30 10:55 | -37.09823 | 145.51203 | 18314 ft | 369 kts | 50° |
| 2026-04-30 10:56 | -37.08327 | 145.53809 | 18767 ft | 367 kts | 50° |
| 2026-04-30 10:56 | -37.06835 | 145.56405 | 19179 ft | 367 kts | 50° |
| 2026-04-30 10:56 | -37.05336 | 145.59010 | 19607 ft | 368 kts | 50° |
| 2026-04-30 10:56 | -37.03836 | 145.61613 | 20036 ft | 367 kts | 50° |
| 2026-04-30 10:57 | -37.02341 | 145.64208 | 20466 ft | 367 kts | 50° |
| 2026-04-30 10:57 | -37.00851 | 145.66793 | 20896 ft | 367 kts | 50° |
| 2026-04-30 10:57 | -36.99355 | 145.69386 | 21345 ft | 367 kts | 50° |
| 2026-04-30 10:57 | -36.97862 | 145.71971 | 21794 ft | 367 kts | 50° |
| 2026-04-30 10:58 | -36.96363 | 145.74564 | 22254 ft | 367 kts | 50° |
| 2026-04-30 10:58 | -36.94888 | 145.77113 | 22705 ft | 366 kts | 50° |
| 2026-04-30 10:58 | -36.93391 | 145.79700 | 23187 ft | 367 kts | 50° |
| 2026-04-30 10:58 | -36.91887 | 145.82294 | 23670 ft | 369 kts | 50° |
| 2026-04-30 10:59 | -36.90383 | 145.84889 | 24119 ft | 368 kts | 50° |
| 2026-04-30 10:59 | -36.88879 | 145.87481 | 24515 ft | 367 kts | 50° |
| 2026-04-30 10:59 | -36.87383 | 145.90058 | 24939 ft | 366 kts | 50° |
| 2026-04-30 10:59 | -36.85889 | 145.92629 | 25352 ft | 365 kts | 50° |
| 2026-04-30 11:00 | -36.84402 | 145.95187 | 25773 ft | 364 kts | 50° |
| 2026-04-30 11:00 | -36.82917 | 145.97742 | 26203 ft | 363 kts | 49° |
| 2026-04-30 11:00 | -36.81434 | 146.00288 | 26643 ft | 362 kts | 49° |
| 2026-04-30 11:00 | -36.79976 | 146.02794 | 27088 ft | 361 kts | 49° |
| 2026-04-30 11:01 | -36.78500 | 146.05324 | 27518 ft | 360 kts | 49° |
| 2026-04-30 11:01 | -36.77024 | 146.07851 | 27986 ft | 359 kts | 49° |
| 2026-04-30 11:01 | -36.75553 | 146.10367 | 28446 ft | 358 kts | 49° |
| 2026-04-30 11:01 | -36.74080 | 146.12884 | 28847 ft | 358 kts | 49° |
| 2026-04-30 11:02 | -36.72612 | 146.15391 | 29213 ft | 357 kts | 49° |
| 2026-04-30 11:02 | -36.71146 | 146.17897 | 29588 ft | 356 kts | 49° |
| 2026-04-30 11:02 | -36.69704 | 146.20358 | 29966 ft | 356 kts | 49° |
| 2026-04-30 11:02 | -36.68241 | 146.22853 | 30298 ft | 356 kts | 49° |
| 2026-04-30 11:03 | -36.66779 | 146.25344 | 30548 ft | 355 kts | 49° |
| 2026-04-30 11:03 | -36.65321 | 146.27828 | 30782 ft | 354 kts | 49° |
| 2026-04-30 11:03 | -36.63870 | 146.30299 | 31020 ft | 354 kts | 49° |
| 2026-04-30 11:04 | -36.60951 | 146.35258 | 31498 ft | 356 kts | 49° |
| 2026-04-30 11:04 | -36.59480 | 146.37754 | 31732 ft | 358 kts | 49° |
| 2026-04-30 11:04 | -36.58002 | 146.40262 | 31992 ft | 360 kts | 49° |
| 2026-04-30 11:04 | -36.56519 | 146.42777 | 32238 ft | 361 kts | 49° |
| 2026-04-30 11:05 | -36.55028 | 146.45304 | 32487 ft | 363 kts | 49° |
| 2026-04-30 11:05 | -36.53532 | 146.47836 | 32747 ft | 364 kts | 49° |
| 2026-04-30 11:05 | -36.52048 | 146.50347 | 32995 ft | 364 kts | 49° |
| 2026-04-30 11:05 | -36.50544 | 146.52890 | 33225 ft | 366 kts | 49° |
| 2026-04-30 11:06 | -36.49028 | 146.55449 | 33359 ft | 371 kts | 49° |
| 2026-04-30 11:06 | -36.45897 | 146.60724 | 33378 ft | 386 kts | 49° |
| 2026-04-30 11:07 | -36.42632 | 146.66222 | 33385 ft | 403 kts | 49° |
| 2026-04-30 11:07 | -36.39229 | 146.71944 | 33382 ft | 421 kts | 49° |
| 2026-04-30 11:08 | -36.35677 | 146.77907 | 33382 ft | 438 kts | 50° |
| 2026-04-30 11:08 | -36.32004 | 146.84064 | 33390 ft | 454 kts | 50° |
| 2026-04-30 11:09 | -36.28181 | 146.90463 | 33384 ft | 465 kts | 50° |
| 2026-04-30 11:09 | -36.24329 | 146.96903 | 33392 ft | 464 kts | 50° |
| 2026-04-30 11:10 | -36.20480 | 147.03321 | 33391 ft | 464 kts | 50° |
| 2026-04-30 11:10 | -36.16644 | 147.09705 | 33395 ft | 464 kts | 50° |
| 2026-04-30 11:11 | -36.12780 | 147.16115 | 33396 ft | 465 kts | 50° |
| 2026-04-30 11:11 | -36.08899 | 147.22545 | 33421 ft | 467 kts | 50° |
| 2026-04-30 11:12 | -36.05002 | 147.28991 | 33437 ft | 468 kts | 50° |
| 2026-04-30 11:12 | -36.01097 | 147.35439 | 33443 ft | 468 kts | 50° |
| 2026-04-30 11:13 | -35.97189 | 147.41880 | 33437 ft | 467 kts | 51° |
| 2026-04-30 11:13 | -35.93357 | 147.48184 | 33408 ft | 461 kts | 51° |
| 2026-04-30 11:14 | -35.89495 | 147.54523 | 33414 ft | 462 kts | 51° |
| 2026-04-30 11:14 | -35.85625 | 147.60864 | 33424 ft | 462 kts | 51° |
| 2026-04-30 11:15 | -35.81774 | 147.67163 | 33423 ft | 462 kts | 51° |
| 2026-04-30 11:15 | -35.77910 | 147.73472 | 33432 ft | 462 kts | 51° |
| 2026-04-30 11:16 | -35.74024 | 147.79807 | 33432 ft | 463 kts | 51° |
| 2026-04-30 11:16 | -35.70164 | 147.86087 | 33443 ft | 463 kts | 51° |
| 2026-04-30 11:17 | -35.66277 | 147.92400 | 33445 ft | 463 kts | 51° |
| 2026-04-30 11:17 | -35.62360 | 147.98748 | 33441 ft | 463 kts | 51° |
| 2026-04-30 11:18 | -35.58455 | 148.05067 | 33458 ft | 464 kts | 51° |
| 2026-04-30 11:18 | -35.52621 | 148.14485 | 33453 ft | 464 kts | 51° |
| 2026-04-30 11:19 | -35.48701 | 148.20798 | 33454 ft | 464 kts | 51° |
| 2026-04-30 11:19 | -35.44784 | 148.27096 | 33455 ft | 464 kts | 51° |
| 2026-04-30 11:20 | -35.40883 | 148.33356 | 33457 ft | 464 kts | 51° |
| 2026-04-30 11:20 | -35.36957 | 148.39644 | 33461 ft | 464 kts | 51° |
| 2026-04-30 11:21 | -35.33025 | 148.45931 | 33328 ft | 464 kts | 51° |
| 2026-04-30 11:21 | -35.31059 | 148.49071 | 33202 ft | 464 kts | 51° |
| 2026-04-30 11:21 | -35.29084 | 148.52224 | 33071 ft | 465 kts | 51° |
| 2026-04-30 11:22 | -35.27136 | 148.55329 | 32941 ft | 465 kts | 51° |
| 2026-04-30 11:22 | -35.25162 | 148.58473 | 32813 ft | 465 kts | 51° |
| 2026-04-30 11:22 | -35.23187 | 148.61615 | 32693 ft | 466 kts | 51° |
| 2026-04-30 11:22 | -35.21206 | 148.64764 | 32555 ft | 466 kts | 51° |
| 2026-04-30 11:23 | -35.19220 | 148.67918 | 32428 ft | 467 kts | 51° |
| 2026-04-30 11:23 | -35.17238 | 148.71064 | 32302 ft | 467 kts | 51° |
| 2026-04-30 11:23 | -35.13294 | 148.77314 | 31793 ft | 467 kts | 52° |
| 2026-04-30 11:24 | -35.11316 | 148.80444 | 31556 ft | 467 kts | 51° |
| 2026-04-30 11:24 | -35.09318 | 148.83603 | 31309 ft | 468 kts | 51° |
| 2026-04-30 11:24 | -35.07330 | 148.86744 | 31068 ft | 465 kts | 51° |
| 2026-04-30 11:25 | -35.03377 | 148.92979 | 30593 ft | 462 kts | 52° |
| 2026-04-30 11:25 | -35.01408 | 148.96082 | 30323 ft | 460 kts | 52° |
| 2026-04-30 11:25 | -34.97520 | 149.02201 | 29767 ft | 456 kts | 51° |
| 2026-04-30 11:26 | -34.93642 | 149.08291 | 29216 ft | 452 kts | 51° |
| 2026-04-30 11:26 | -34.91717 | 149.11311 | 28950 ft | 450 kts | 51° |
| 2026-04-30 11:26 | -34.89829 | 149.14272 | 28685 ft | 449 kts | 51° |
| 2026-04-30 11:27 | -34.87882 | 149.17322 | 28418 ft | 447 kts | 51° |
| 2026-04-30 11:27 | -34.86003 | 149.20262 | 28161 ft | 444 kts | 51° |
| 2026-04-30 11:27 | -34.84100 | 149.23240 | 27898 ft | 442 kts | 51° |
| 2026-04-30 11:27 | -34.82213 | 149.26188 | 27649 ft | 440 kts | 51° |
| 2026-04-30 11:28 | -34.78460 | 149.32044 | 27144 ft | 437 kts | 51° |
| 2026-04-30 11:28 | -34.76587 | 149.34962 | 26901 ft | 435 kts | 51° |
| 2026-04-30 11:28 | -34.74739 | 149.37867 | 26649 ft | 433 kts | 53° |
| 2026-04-30 11:29 | -34.73128 | 149.40946 | 26405 ft | 431 kts | 60° |
| 2026-04-30 11:29 | -34.71749 | 149.44131 | 26171 ft | 430 kts | 61° |
| 2026-04-30 11:29 | -34.68969 | 149.50545 | 25697 ft | 427 kts | 61° |
| 2026-04-30 11:30 | -34.66201 | 149.56889 | 25456 ft | 424 kts | 60° |
| 2026-04-30 11:30 | -34.64811 | 149.60068 | 25449 ft | 425 kts | 61° |
| 2026-04-30 11:30 | -34.63423 | 149.63237 | 25455 ft | 426 kts | 61° |
| 2026-04-30 11:31 | -34.62032 | 149.66411 | 25457 ft | 426 kts | 61° |
| 2026-04-30 11:31 | -34.60639 | 149.69589 | 25456 ft | 425 kts | 61° |
| 2026-04-30 11:31 | -34.59248 | 149.72758 | 25460 ft | 425 kts | 62° |
| 2026-04-30 11:31 | -34.57873 | 149.75889 | 25460 ft | 425 kts | 61° |
| 2026-04-30 11:32 | -34.56480 | 149.79056 | 25450 ft | 426 kts | 61° |
| 2026-04-30 11:32 | -34.55088 | 149.82219 | 25257 ft | 425 kts | 61° |
| 2026-04-30 11:32 | -34.53691 | 149.85392 | 25004 ft | 422 kts | 61° |
| 2026-04-30 11:33 | -34.50934 | 149.91644 | 24502 ft | 419 kts | 62° |
| 2026-04-30 11:33 | -34.49561 | 149.94753 | 24259 ft | 418 kts | 62° |
| 2026-04-30 11:33 | -34.48183 | 149.97868 | 24004 ft | 416 kts | 61° |
| 2026-04-30 11:33 | -34.46817 | 150.00954 | 23674 ft | 414 kts | 61° |
| 2026-04-30 11:34 | -34.45481 | 150.03970 | 23209 ft | 408 kts | 61° |
| 2026-04-30 11:34 | -34.44149 | 150.06973 | 22736 ft | 401 kts | 61° |
| 2026-04-30 11:34 | -34.42835 | 150.09934 | 22273 ft | 395 kts | 61° |
| 2026-04-30 11:34 | -34.41974 | 150.11874 | 21970 ft | 391 kts | 61° |
| 2026-04-30 11:35 | -34.40694 | 150.14756 | 21514 ft | 386 kts | 61° |
| 2026-04-30 11:35 | -34.39421 | 150.17617 | 21072 ft | 383 kts | 61° |
| 2026-04-30 11:35 | -34.38165 | 150.20438 | 20632 ft | 379 kts | 61° |
| 2026-04-30 11:35 | -34.36924 | 150.23225 | 20194 ft | 374 kts | 61° |
| 2026-04-30 11:36 | -34.35695 | 150.25983 | 19775 ft | 369 kts | 61° |
| 2026-04-30 11:36 | -34.34479 | 150.28709 | 19354 ft | 365 kts | 61° |
| 2026-04-30 11:36 | -34.33293 | 150.31364 | 18947 ft | 361 kts | 61° |
| 2026-04-30 11:36 | -34.32102 | 150.34030 | 18501 ft | 358 kts | 61° |
| 2026-04-30 11:37 | -34.30924 | 150.36664 | 18028 ft | 355 kts | 61° |
| 2026-04-30 11:37 | -34.29751 | 150.39283 | 17565 ft | 353 kts | 61° |
| 2026-04-30 11:37 | -34.28582 | 150.41893 | 17107 ft | 351 kts | 61° |
| 2026-04-30 11:37 | -34.27424 | 150.44478 | 16657 ft | 348 kts | 61° |
| 2026-04-30 11:38 | -34.26274 | 150.47051 | 16122 ft | 347 kts | 61° |
| 2026-04-30 11:38 | -34.25122 | 150.49627 | 15547 ft | 349 kts | 61° |
| 2026-04-30 11:38 | -34.23981 | 150.52179 | 14990 ft | 350 kts | 61° |
| 2026-04-30 11:38 | -34.22822 | 150.54770 | 14423 ft | 350 kts | 61° |
| 2026-04-30 11:39 | -34.21662 | 150.57358 | 13819 ft | 350 kts | 61° |
| 2026-04-30 11:39 | -34.20503 | 150.59942 | 13205 ft | 350 kts | 61° |
| 2026-04-30 11:39 | -34.19342 | 150.62528 | 12592 ft | 348 kts | 61° |
| 2026-04-30 11:39 | -34.18180 | 150.65059 | 11985 ft | 339 kts | 60° |
| 2026-04-30 11:40 | -34.17049 | 150.67526 | 11407 ft | 331 kts | 61° |
| 2026-04-30 11:40 | -34.15984 | 150.69922 | 10844 ft | 324 kts | 61° |
| 2026-04-30 11:40 | -34.14926 | 150.72308 | 10272 ft | 317 kts | 61° |
| 2026-04-30 11:40 | -34.13889 | 150.74635 | 9644 ft | 311 kts | 61° |
| 2026-04-30 11:41 | -34.12874 | 150.76901 | 9028 ft | 305 kts | 61° |
| 2026-04-30 11:41 | -34.11863 | 150.79147 | 8421 ft | 300 kts | 61° |
| 2026-04-30 11:41 | -34.10871 | 150.81345 | 7820 ft | 295 kts | 61° |
| 2026-04-30 11:41 | -34.09906 | 150.83479 | 7253 ft | 291 kts | 61° |
| 2026-04-30 11:42 | -34.08946 | 150.85610 | 6782 ft | 284 kts | 61° |
| 2026-04-30 11:42 | -34.08024 | 150.87659 | 6392 ft | 273 kts | 61° |
| 2026-04-30 11:42 | -34.07134 | 150.89639 | 6008 ft | 263 kts | 61° |
| 2026-04-30 11:42 | -34.06275 | 150.91549 | 5630 ft | 255 kts | 61° |
| 2026-04-30 11:43 | -34.05441 | 150.93403 | 5258 ft | 249 kts | 61° |
| 2026-04-30 11:43 | -34.04609 | 150.95247 | 4884 ft | 250 kts | 61° |
| 2026-04-30 11:43 | -34.03793 | 150.97054 | 4509 ft | 246 kts | 61° |
| 2026-04-30 11:43 | -34.03098 | 150.98923 | 4124 ft | 245 kts | 77° |
| 2026-04-30 11:44 | -34.03148 | 151.00970 | 3783 ft | 250 kts | 105° |
| 2026-04-30 11:44 | -34.04041 | 151.02774 | 3406 ft | 254 kts | 130° |
| 2026-04-30 11:44 | -34.05259 | 151.04307 | 3179 ft | 248 kts | 131° |
| 2026-04-30 11:44 | -34.06458 | 151.05793 | 3078 ft | 253 kts | 131° |
| 2026-04-30 11:45 | -34.07774 | 151.07240 | 3019 ft | 253 kts | 144° |
| 2026-04-30 11:45 | -34.09368 | 151.08095 | 3019 ft | 255 kts | 165° |
| 2026-04-30 11:45 | -34.11118 | 151.08534 | 3014 ft | 252 kts | 166° |
| 2026-04-30 11:45 | -34.12776 | 151.08951 | 3014 ft | 235 kts | 166° |
| 2026-04-30 11:46 | -34.14384 | 151.09369 | 3018 ft | 241 kts | 163° |
| 2026-04-30 11:46 | -34.15815 | 151.10278 | 3010 ft | 225 kts | 131° |
| 2026-04-30 11:46 | -34.16536 | 151.11805 | 3013 ft | 202 kts | 96° |
| 2026-04-30 11:46 | -34.16441 | 151.13451 | 3035 ft | 195 kts | 74° |
| 2026-04-30 11:47 | -34.16114 | 151.14985 | 3014 ft | 188 kts | 72° |
| 2026-04-30 11:47 | -34.15785 | 151.16515 | 3012 ft | 182 kts | 73° |
| 2026-04-30 11:47 | -34.15475 | 151.17944 | 3016 ft | 174 kts | 71° |
| 2026-04-30 11:47 | -34.14797 | 151.19113 | 3013 ft | 173 kts | 32° |
| 2026-04-30 11:48 | -34.13694 | 151.19731 | 3010 ft | 175 kts | 22° |
| 2026-04-30 11:48 | -34.12623 | 151.20373 | 3017 ft | 172 kts | 35° |
| 2026-04-30 11:48 | -34.11618 | 151.21159 | 2968 ft | 168 kts | 25° |
| 2026-04-30 11:48 | -34.10527 | 151.21502 | 2788 ft | 159 kts | 6° |
| 2026-04-30 11:49 | -34.09436 | 151.21454 | 2596 ft | 158 kts | 355° |
| 2026-04-30 11:49 | -34.08362 | 151.21236 | 2401 ft | 157 kts | 351° |
| 2026-04-30 11:49 | -34.07303 | 151.20965 | 2210 ft | 156 kts | 351° |
| 2026-04-30 11:49 | -34.06242 | 151.20685 | 1997 ft | 156 kts | 351° |
| 2026-04-30 11:50 | -34.05180 | 151.20403 | 1783 ft | 152 kts | 351° |
| 2026-04-30 11:50 | -34.04182 | 151.20137 | 1583 ft | 142 kts | 351° |
| 2026-04-30 11:50 | -34.03203 | 151.19879 | 1392 ft | 145 kts | 351° |
| 2026-04-30 11:50 | -34.02229 | 151.19621 | 1208 ft | 144 kts | 351° |
| 2026-04-30 11:51 | -34.01262 | 151.19364 | 1018 ft | 142 kts | 352° |
| 2026-04-30 11:51 | -34.00302 | 151.19114 | 851 ft | 140 kts | 351° |
| 2026-04-30 11:51 | -33.99358 | 151.18837 | 642 ft | 139 kts | 349° |
| 2026-04-30 11:51 | -33.98428 | 151.18586 | 389 ft | 133 kts | 352° |
| 2026-04-30 11:52 | -33.97481 | 151.18338 | 210 ft | 154 kts | 349° |
| 2026-04-30 11:52 | -33.96478 | 151.18075 | 58 ft | 137 kts | 349° |
| 2026-04-30 11:52 | -33.95630 | 151.17861 | 24 ft | 103 kts | 348° |
| 2026-04-30 11:52 | -33.95129 | 151.17729 | 19 ft | 45 kts | 348° |
| 2026-04-30 11:53 | -33.94836 | 151.17657 | 23 ft | 41 kts | 353° |
| 2026-04-30 11:53 | -33.94593 | 151.17666 | 26 ft | 25 kts | 10° |
| 2026-04-30 11:53 | -33.94558 | 151.17674 | 23 ft | 0 kts | 12° |
| 2026-04-30 11:54 | -33.94556 | 151.17674 | 23 ft | 0 kts | 12° |
| 2026-04-30 11:54 | -33.94548 | 151.17676 | 26 ft | 3 kts | 12° |
| 2026-04-30 11:54 | -33.94521 | 151.17683 | 27 ft | 5 kts | 12° |
| 2026-04-30 11:54 | -33.94479 | 151.17696 | 25 ft | 8 kts | 16° |
| 2026-04-30 11:55 | -33.94419 | 151.17720 | 25 ft | 11 kts | 20° |
| 2026-04-30 11:55 | -33.94331 | 151.17733 | 22 ft | 15 kts | 352° |
| 2026-04-30 11:55 | -33.94221 | 151.17701 | 21 ft | 16 kts | 346° |
| 2026-04-30 11:55 | -33.94122 | 151.17673 | 22 ft | 15 kts | 346° |
| 2026-04-30 11:56 | -33.94015 | 151.17639 | 20 ft | 17 kts | 346° |
| 2026-04-30 11:56 | -33.93916 | 151.17612 | 19 ft | 9 kts | 349° |
| 2026-04-30 11:56 | -33.93873 | 151.17645 | 18 ft | 0 kts | 71° |
| 2026-04-30 11:57 | -33.93867 | 151.17666 | 20 ft | 4 kts | 73° |
| 2026-04-30 11:57 | -33.93858 | 151.17708 | 19 ft | 6 kts | 78° |
| 2026-04-30 11:57 | -33.93849 | 151.17765 | 20 ft | 7 kts | 70° |
| 2026-04-30 11:57 | -33.93817 | 151.17788 | 21 ft | 6 kts | 1° |
| 2026-04-30 11:58 | -33.93776 | 151.17787 | 23 ft | 5 kts | 358° |
| 2026-04-30 11:58 | -33.93753 | 151.17789 | 26 ft | 1 kts | 8° |
| 2026-04-30 11:58 | -33.93726 | 151.17796 | 29 ft | 8 kts | 13° |
| 2026-04-30 11:58 | -33.93671 | 151.17820 | 30 ft | 9 kts | 61° |
| 2026-04-30 11:59 | -33.93661 | 151.17870 | 30 ft | 0 kts | 87° |